createdAt,value
2022-10-05T00:01:34.538Z,78.00
2022-10-05T00:04:28.965Z,77.80
2022-10-05T00:07:18.523Z,78.00
2022-10-05T00:09:57.906Z,78.00
2022-10-05T00:12:29.676Z,78.40
2022-10-05T00:15:01.116Z,78.00
2022-10-05T00:17:30.733Z,78.20
2022-10-05T00:19:58.009Z,78.50
2022-10-05T00:22:33.269Z,79.30
2022-10-05T00:25:11.143Z,79.10
2022-10-05T00:27:39.749Z,79.10
2022-10-05T00:30:17.699Z,79.00
2022-10-05T00:32:46.355Z,79.10
2022-10-05T00:35:16.623Z,79.20
2022-10-05T00:37:46.628Z,79.00
2022-10-05T00:41:08.882Z,79.00
2022-10-05T00:44:59.956Z,78.60
2022-10-05T00:48:27.172Z,78.80
2022-10-05T00:51:24.116Z,79.00
2022-10-05T00:54:36.676Z,78.60
2022-10-05T00:57:44.480Z,78.50
2022-10-05T01:00:20.204Z,78.70
2022-10-05T01:03:25.905Z,78.70
2022-10-05T01:06:34.104Z,78.80
2022-10-05T01:09:33.239Z,79.20
2022-10-05T01:12:45.582Z,79.20
2022-10-05T01:15:39.700Z,79.40
2022-10-05T01:18:59.035Z,79.40
2022-10-05T01:21:36.853Z,79.70
2022-10-05T01:24:49.863Z,79.80
2022-10-05T01:28:04.746Z,79.90
2022-10-05T01:30:56.867Z,80.00
2022-10-05T01:33:50.297Z,79.90
2022-10-05T01:36:51.484Z,80.00
2022-10-05T01:39:49.106Z,80.10
2022-10-05T01:42:56.006Z,80.40
2022-10-05T01:46:15.412Z,80.40
2022-10-05T01:49:50.184Z,80.30
2022-10-05T01:52:52.210Z,80.70
2022-10-05T01:56:22.560Z,80.40
2022-10-05T01:59:46.920Z,80.60
2022-10-05T02:02:21.018Z,80.30
2022-10-05T02:05:08.237Z,80.00
2022-10-05T02:07:51.117Z,80.00
2022-10-05T02:10:36.280Z,80.30
2022-10-05T02:13:38.894Z,80.00
2022-10-05T02:16:45.063Z,80.00
2022-10-05T02:19:44.641Z,80.00
2022-10-05T02:22:38.082Z,80.00
2022-10-05T02:25:33.132Z,80.10
2022-10-05T02:29:00.344Z,80.30
2022-10-05T02:31:57.560Z,80.40
2022-10-05T02:34:38.412Z,80.60
2022-10-05T02:37:57.124Z,80.40
2022-10-05T02:41:20.055Z,80.70
2022-10-05T02:44:41.688Z,80.80
2022-10-05T02:47:54.996Z,80.90
2022-10-05T02:50:39.084Z,81.20
2022-10-05T02:54:04.631Z,81.40
2022-10-05T02:57:16.301Z,81.50
2022-10-05T03:00:15.024Z,81.40
2022-10-05T03:03:25.442Z,81.50
2022-10-05T03:06:04.571Z,81.10
2022-10-05T03:08:55.458Z,81.30
2022-10-05T03:12:22.994Z,81.20
2022-10-05T03:15:45.028Z,81.30
2022-10-05T03:19:31.371Z,81.50
2022-10-05T03:23:02.151Z,81.40
2022-10-05T03:25:41.288Z,81.80
2022-10-05T03:28:54.908Z,82.10
2022-10-05T03:31:59.678Z,82.20
2022-10-05T03:35:00.311Z,82.30
2022-10-05T03:37:39.508Z,82.50
2022-10-05T03:40:39.800Z,82.30
2022-10-05T03:44:16.713Z,82.50
2022-10-05T03:47:38.004Z,82.50
2022-10-05T03:51:12.944Z,83.20
2022-10-05T03:53:56.624Z,83.20
2022-10-05T03:56:53.424Z,83.20
2022-10-05T03:59:40.471Z,83.90
2022-10-05T04:02:31.098Z,83.80
2022-10-05T04:05:18.089Z,84.50
2022-10-05T04:08:07.661Z,85.10
2022-10-05T04:10:55.415Z,85.50
2022-10-05T04:13:51.973Z,85.90
2022-10-05T04:16:34.594Z,86.10
2022-10-05T04:19:19.591Z,86.40
2022-10-05T04:22:17.134Z,86.40
2022-10-05T04:25:24.968Z,87.00
2022-10-05T04:28:31.967Z,86.80
2022-10-05T04:31:04.111Z,86.40
2022-10-05T04:33:33.341Z,86.40
2022-10-05T04:36:30.046Z,86.30
2022-10-05T04:39:48.001Z,86.70
2022-10-05T04:42:45.737Z,87.10
2022-10-05T04:46:08.979Z,86.90
2022-10-05T04:49:29.939Z,87.00
2022-10-05T04:52:37.949Z,87.10
2022-10-05T04:55:45.936Z,87.10
2022-10-05T04:59:05.196Z,87.20
2022-10-05T05:02:53.315Z,87.40
2022-10-05T05:06:28.192Z,87.60
2022-10-05T05:09:59.563Z,87.50
2022-10-05T05:13:50.523Z,87.50
2022-10-05T05:16:43.650Z,87.30
2022-10-05T05:20:16.805Z,87.30
2022-10-05T05:23:23.816Z,87.50
2022-10-05T05:26:14.626Z,87.60
2022-10-05T05:29:44.849Z,87.50
2022-10-05T05:33:12.742Z,88.00
2022-10-05T05:35:52.798Z,88.30
2022-10-05T05:38:44.726Z,88.00
2022-10-05T05:41:44.231Z,87.90
2022-10-05T05:44:38.603Z,87.80
2022-10-05T05:47:30.757Z,88.40
2022-10-05T05:50:51.494Z,88.10
2022-10-05T05:53:57.696Z,88.20
2022-10-05T05:56:40.389Z,88.60
2022-10-05T05:59:32.519Z,88.40
2022-10-05T06:02:27.310Z,88.00
2022-10-05T06:05:32.068Z,88.30
2022-10-05T06:08:20.445Z,88.10
2022-10-05T06:11:00.515Z,88.40
2022-10-05T06:13:40.463Z,88.50
2022-10-05T06:16:51.857Z,88.50
2022-10-05T06:19:24.544Z,88.90
2022-10-05T06:22:32.673Z,88.80
2022-10-05T06:25:11.768Z,89.00
2022-10-05T06:28:00.234Z,88.60
2022-10-05T06:31:02.981Z,88.40
2022-10-05T06:34:01.695Z,88.40
2022-10-05T06:36:50.944Z,88.60
2022-10-05T06:39:54.591Z,88.80
2022-10-05T06:42:59.864Z,88.80
2022-10-05T06:46:16.151Z,89.00
2022-10-05T06:49:23.358Z,89.30
2022-10-05T06:52:14.810Z,89.30
2022-10-05T06:55:13.909Z,89.40
2022-10-05T06:58:30.889Z,89.50
2022-10-05T07:01:38.855Z,89.00
2022-10-05T07:04:42.457Z,88.40
2022-10-05T07:07:32.506Z,88.30
2022-10-05T07:10:54.893Z,88.20
2022-10-05T07:14:14.061Z,88.10
2022-10-05T07:17:29.247Z,88.00
2022-10-05T07:20:55.318Z,88.30
2022-10-05T07:23:58.237Z,88.20
2022-10-05T07:27:13.559Z,88.10
2022-10-05T07:30:12.878Z,88.20
2022-10-05T07:33:20.841Z,88.00
2022-10-05T07:37:08.581Z,88.30
2022-10-05T07:40:30.735Z,88.20
2022-10-05T07:44:01.104Z,87.80
2022-10-05T07:47:26.119Z,87.60
2022-10-05T07:50:43.840Z,87.20
2022-10-05T07:53:45.176Z,87.00
2022-10-05T07:56:49.409Z,87.00
2022-10-05T08:00:19.033Z,86.90
2022-10-05T08:03:34.362Z,86.50
2022-10-05T08:06:03.789Z,86.00
2022-10-05T08:09:26.144Z,86.30
2022-10-05T08:12:31.129Z,86.40
2022-10-05T08:15:45.926Z,85.90
2022-10-05T08:18:54.313Z,85.60
2022-10-05T08:22:04.229Z,86.40
2022-10-05T08:25:01.912Z,85.80
2022-10-05T08:28:23.067Z,85.80
2022-10-05T08:31:33.649Z,85.20
2022-10-05T08:34:39.536Z,85.20
2022-10-05T08:37:35.294Z,84.60
2022-10-05T08:41:27.385Z,84.80
2022-10-05T08:44:41.384Z,84.50
2022-10-05T08:48:04.680Z,84.10
2022-10-05T08:50:50.035Z,83.70
2022-10-05T08:53:59.281Z,83.70
2022-10-05T08:57:31.428Z,82.50
2022-10-05T09:00:24.846Z,82.60
2022-10-05T09:03:50.480Z,82.40
2022-10-05T09:07:13.324Z,81.10
2022-10-05T09:10:13.627Z,81.00
2022-10-05T09:13:48.203Z,80.60
2022-10-05T09:17:19.654Z,80.10
2022-10-05T09:20:30.845Z,79.40
2022-10-05T09:23:26.304Z,79.00
2022-10-05T09:26:46.608Z,78.60
2022-10-05T09:30:10.622Z,78.60
2022-10-05T09:32:58.199Z,77.30
2022-10-05T09:36:18.772Z,76.60
2022-10-05T09:39:42.323Z,77.00
2022-10-05T09:42:40.027Z,75.00
2022-10-05T09:46:05.264Z,75.00
2022-10-05T09:49:31.393Z,74.50
2022-10-05T09:53:27.540Z,73.90
2022-10-05T09:56:52.389Z,72.80
2022-10-05T10:00:34.368Z,71.60
2022-10-05T10:04:17.956Z,69.70
2022-10-05T10:07:20.554Z,68.80
2022-10-05T10:10:41.877Z,68.00
2022-10-05T10:14:01.347Z,67.70
2022-10-05T10:17:27.752Z,67.20
2022-10-05T10:21:07.725Z,66.00
2022-10-05T10:24:24.052Z,64.50
2022-10-05T10:27:42.030Z,63.90
2022-10-05T10:30:56.406Z,63.10
2022-10-05T10:34:03.733Z,62.60
2022-10-05T10:37:00.941Z,62.60
2022-10-05T10:40:26.909Z,60.50
2022-10-05T10:43:43.716Z,60.80
2022-10-05T10:47:13.869Z,59.70
2022-10-05T10:50:28.278Z,59.00
2022-10-05T10:53:57.524Z,57.70
2022-10-05T10:57:10.984Z,56.90
2022-10-05T11:00:20.866Z,56.70
2022-10-05T11:03:43.536Z,56.00
2022-10-05T11:06:50.072Z,55.60
2022-10-05T11:09:27.919Z,54.20
2022-10-05T11:12:58.548Z,53.60
2022-10-05T11:17:10.884Z,52.00
2022-10-05T11:20:19.736Z,52.00
2022-10-05T11:23:56.520Z,51.70
2022-10-05T11:27:04.282Z,51.30
2022-10-05T11:30:35.273Z,49.50
2022-10-05T11:34:04.052Z,49.70
2022-10-05T11:37:15.883Z,47.90
2022-10-05T11:40:43.203Z,47.10
2022-10-05T11:44:07.230Z,46.70
2022-10-05T11:47:19.736Z,44.60
2022-10-05T11:50:30.400Z,44.90
2022-10-05T11:53:33.623Z,42.80
2022-10-05T11:56:41.715Z,43.70
2022-10-05T11:59:51.597Z,40.90
2022-10-05T12:03:06.949Z,41.90
2022-10-05T12:06:38.760Z,40.00
2022-10-05T12:09:37.352Z,38.70
2022-10-05T12:12:27.680Z,37.70
2022-10-05T12:15:42.547Z,41.50
2022-10-05T12:18:42.149Z,44.80
2022-10-05T12:21:49.982Z,46.80
2022-10-05T12:25:46.975Z,43.10
2022-10-05T12:28:23.442Z,45.70
2022-10-05T12:31:45.957Z,44.50
2022-10-05T12:35:04.488Z,44.20
2022-10-05T12:38:12.462Z,42.20
2022-10-05T12:41:20.273Z,39.50
2022-10-05T12:44:04.684Z,43.40
2022-10-05T12:46:50.521Z,42.60
2022-10-05T12:50:35.168Z,42.30
2022-10-05T12:54:07.184Z,40.80
2022-10-05T12:56:44.731Z,40.30
2022-10-05T12:59:34.464Z,42.30
2022-10-05T13:02:44.440Z,43.10
2022-10-05T13:05:11.456Z,42.20
2022-10-05T13:08:31.020Z,43.10
2022-10-05T13:11:16.926Z,41.50
2022-10-05T13:14:45.350Z,41.70
2022-10-05T13:18:03.771Z,40.90
2022-10-05T13:21:15.163Z,43.90
2022-10-05T13:24:22.119Z,42.70
2022-10-05T13:27:05.554Z,43.40
2022-10-05T13:30:12.259Z,42.50
2022-10-05T13:33:05.705Z,43.50
2022-10-05T13:35:58.976Z,42.80
2022-10-05T13:38:52.996Z,42.80
2022-10-05T13:42:26.843Z,43.30
2022-10-05T13:45:21.314Z,43.10
2022-10-05T13:48:57.769Z,43.40
2022-10-05T13:51:56.337Z,43.70
2022-10-05T13:55:16.992Z,42.70
2022-10-05T13:58:25.914Z,43.10
2022-10-05T14:01:13.562Z,43.30
2022-10-05T14:03:42.079Z,40.20
2022-10-05T14:06:30.006Z,40.40
2022-10-05T14:09:00.494Z,40.00
2022-10-05T14:11:35.127Z,39.10
2022-10-05T14:14:27.303Z,38.70
2022-10-05T14:17:00.905Z,38.40
2022-10-05T14:19:46.252Z,38.70
2022-10-05T14:22:25.009Z,38.70
2022-10-05T14:25:19.919Z,39.00
2022-10-05T14:28:12.176Z,38.40
2022-10-05T14:30:40.493Z,39.80
2022-10-05T14:33:17.000Z,38.90
2022-10-05T14:35:51.303Z,39.30
2022-10-05T14:39:02.010Z,38.30
2022-10-05T14:41:34.413Z,37.60
2022-10-05T14:44:09.142Z,38.40
2022-10-05T14:46:38.564Z,38.10
2022-10-05T14:49:26.091Z,38.70
2022-10-05T14:51:56.238Z,37.60
2022-10-05T14:54:56.964Z,37.20
2022-10-05T14:58:03.628Z,36.40
2022-10-05T15:01:06.896Z,37.30
2022-10-05T15:04:22.649Z,38.50
2022-10-05T15:07:31.024Z,38.60
2022-10-05T15:10:29.417Z,38.00
2022-10-05T15:13:15.656Z,37.70
2022-10-05T15:16:14.409Z,37.00
2022-10-05T15:19:00.043Z,37.10
2022-10-05T15:22:15.116Z,36.60
2022-10-05T15:24:50.588Z,37.30
2022-10-05T15:28:06.340Z,37.20
2022-10-05T15:30:52.270Z,36.40
2022-10-05T15:33:51.064Z,37.70
2022-10-05T15:36:43.304Z,37.60
2022-10-05T15:39:37.094Z,38.10
2022-10-05T15:42:21.240Z,38.10
2022-10-05T15:45:35.232Z,37.90
2022-10-05T15:48:39.333Z,37.70
2022-10-05T15:51:50.877Z,37.80
2022-10-05T15:54:54.490Z,37.30
2022-10-05T15:57:48.975Z,37.10
2022-10-05T16:00:23.217Z,37.70
2022-10-05T16:03:59.616Z,38.00
2022-10-05T16:07:07.415Z,37.90
2022-10-05T16:10:14.353Z,38.40
2022-10-05T16:13:42.607Z,38.70
2022-10-05T16:16:54.514Z,38.60
2022-10-05T16:20:21.437Z,39.10
2022-10-05T16:23:33.404Z,39.70
2022-10-05T16:26:57.277Z,39.70
2022-10-05T16:30:04.000Z,40.10
2022-10-05T16:32:58.480Z,40.90
2022-10-05T16:36:23.358Z,41.00
2022-10-05T16:39:20.669Z,41.10
2022-10-05T16:42:24.077Z,41.60
2022-10-05T16:45:47.993Z,41.80
2022-10-05T16:48:52.409Z,41.80
2022-10-05T16:52:00.332Z,42.30
2022-10-05T16:55:02.909Z,42.60
2022-10-05T16:57:43.150Z,43.10
2022-10-05T17:00:45.337Z,43.90
2022-10-05T17:03:35.870Z,45.90
2022-10-05T17:06:59.139Z,46.60
2022-10-05T17:10:13.055Z,46.80
2022-10-05T17:13:23.320Z,47.20
2022-10-05T17:16:35.912Z,46.90
2022-10-05T17:19:43.619Z,47.80
2022-10-05T17:22:52.937Z,49.20
2022-10-05T17:25:48.280Z,49.20
2022-10-05T17:28:41.140Z,50.40
2022-10-05T17:31:22.229Z,51.10
2022-10-05T17:34:16.538Z,53.20
2022-10-05T17:36:54.441Z,54.30
2022-10-05T17:39:52.273Z,53.50
2022-10-05T17:42:35.462Z,54.60
2022-10-05T17:45:31.624Z,55.30
2022-10-05T17:48:33.896Z,55.50
2022-10-05T17:51:19.876Z,56.00
2022-10-05T17:54:08.482Z,56.10
2022-10-05T17:56:47.994Z,57.20
2022-10-05T17:59:53.797Z,57.20
2022-10-05T18:02:42.808Z,56.90
2022-10-05T18:05:14.469Z,57.40
2022-10-05T18:07:48.151Z,57.10
2022-10-05T18:10:30.009Z,57.40
2022-10-05T18:13:00.225Z,58.20
2022-10-05T18:15:27.253Z,57.90
2022-10-05T18:18:32.189Z,58.20
2022-10-05T18:21:14.928Z,58.70
2022-10-05T18:23:56.869Z,59.70
2022-10-05T18:27:16.105Z,59.40
2022-10-05T18:30:08.754Z,59.90
2022-10-05T18:33:36.142Z,60.30
2022-10-05T18:36:54.875Z,61.00
2022-10-05T18:40:34.806Z,61.10
2022-10-05T18:43:37.987Z,61.30
2022-10-05T18:46:50.428Z,61.00
2022-10-05T18:50:42.928Z,61.20
2022-10-05T18:53:31.785Z,61.20
2022-10-05T18:56:45.147Z,61.60
2022-10-05T18:59:46.890Z,61.80
2022-10-05T19:02:38.434Z,62.10
2022-10-05T19:05:51.525Z,62.00
2022-10-05T19:08:50.228Z,62.30
2022-10-05T19:12:01.278Z,62.50
2022-10-05T19:15:15.644Z,62.70
2022-10-05T19:18:43.205Z,63.40
2022-10-05T19:21:51.390Z,63.50
2022-10-05T19:25:04.403Z,64.20
2022-10-05T19:28:27.002Z,64.20
2022-10-05T19:31:14.102Z,64.80
2022-10-05T19:34:28.377Z,64.80
2022-10-05T19:37:48.889Z,65.10
2022-10-05T19:41:13.324Z,65.90
2022-10-05T19:44:39.100Z,65.80
2022-10-05T19:48:14.526Z,66.40
2022-10-05T19:50:59.201Z,66.80
2022-10-05T19:53:37.814Z,66.80
2022-10-05T19:56:31.082Z,67.00
2022-10-05T19:59:17.207Z,67.40
2022-10-05T20:01:56.719Z,67.30
2022-10-05T20:04:36.672Z,67.30
2022-10-05T20:07:04.917Z,67.70
2022-10-05T20:10:22.794Z,67.40
2022-10-05T20:12:57.504Z,67.90
2022-10-05T20:15:55.327Z,68.10
2022-10-05T20:19:07.798Z,68.10
2022-10-05T20:21:49.512Z,68.40
2022-10-05T20:24:25.759Z,68.40
2022-10-05T20:27:09.533Z,68.50
2022-10-05T20:29:44.523Z,68.60
2022-10-05T20:32:18.718Z,68.70
2022-10-05T20:34:49.402Z,68.40
2022-10-05T20:37:18.967Z,68.10
2022-10-05T20:39:47.899Z,68.70
2022-10-05T20:42:15.209Z,68.70
2022-10-05T20:44:43.737Z,68.90
2022-10-05T20:47:11.821Z,69.10
2022-10-05T20:49:44.453Z,69.10
2022-10-05T20:52:15.061Z,69.20
2022-10-05T20:54:43.184Z,69.00
2022-10-05T20:57:11.038Z,69.10
2022-10-05T20:59:38.392Z,69.20
2022-10-05T21:02:06.257Z,69.20
2022-10-05T21:04:41.255Z,69.40
2022-10-05T21:07:09.334Z,69.80
2022-10-05T21:09:38.476Z,69.90
2022-10-05T21:12:05.933Z,69.90
2022-10-05T21:14:34.518Z,70.40
2022-10-05T21:17:04.483Z,70.40
2022-10-05T21:19:38.107Z,70.60
2022-10-05T21:22:10.669Z,71.00
2022-10-05T21:24:40.867Z,70.90
2022-10-05T21:27:09.628Z,71.00
2022-10-05T21:29:37.250Z,71.10
2022-10-05T21:32:08.645Z,71.40
2022-10-05T21:34:36.053Z,71.80
2022-10-05T21:37:03.413Z,71.50
2022-10-05T21:39:30.679Z,71.70
2022-10-05T21:41:57.953Z,72.20
2022-10-05T21:44:25.343Z,71.90
2022-10-05T21:46:52.908Z,72.00
2022-10-05T21:49:20.481Z,72.20
2022-10-05T21:51:48.514Z,72.10
2022-10-05T21:54:21.220Z,72.20
2022-10-05T21:56:57.967Z,72.50
2022-10-05T21:59:33.611Z,72.50
2022-10-05T22:02:00.925Z,72.70
2022-10-05T22:04:29.142Z,72.70
2022-10-05T22:06:56.792Z,72.60
2022-10-05T22:09:24.899Z,72.60
2022-10-05T22:11:52.167Z,72.50
2022-10-05T22:14:19.447Z,72.60
2022-10-05T22:16:47.249Z,72.70
2022-10-05T22:19:19.967Z,72.90
2022-10-05T22:21:47.327Z,72.80
2022-10-05T22:24:15.512Z,73.00
2022-10-05T22:26:46.911Z,73.20
2022-10-05T22:29:17.380Z,73.20
2022-10-05T22:31:48.563Z,73.20
2022-10-05T22:34:18.033Z,73.70
2022-10-05T22:36:45.874Z,73.40
2022-10-05T22:39:14.252Z,73.40
2022-10-05T22:41:41.818Z,73.70
2022-10-05T22:44:10.780Z,73.70
2022-10-05T22:46:38.395Z,73.70
2022-10-05T22:49:05.692Z,73.80
2022-10-05T22:51:32.985Z,74.00
2022-10-05T22:54:00.272Z,74.50
2022-10-05T22:56:27.608Z,74.10
2022-10-05T22:58:54.865Z,74.40
2022-10-05T23:01:23.323Z,74.30
2022-10-05T23:03:50.596Z,74.40
2022-10-05T23:06:20.853Z,74.60
2022-10-05T23:08:48.270Z,74.80
2022-10-05T23:11:27.096Z,75.40
2022-10-05T23:13:56.991Z,75.10
2022-10-05T23:16:28.499Z,75.20
2022-10-05T23:18:56.912Z,75.20
2022-10-05T23:21:29.072Z,75.30
2022-10-05T23:23:56.394Z,75.40
2022-10-05T23:26:33.107Z,75.80
2022-10-05T23:29:00.398Z,76.00
2022-10-05T23:31:31.884Z,75.60
2022-10-05T23:33:59.663Z,75.50
2022-10-05T23:36:32.995Z,75.70
2022-10-05T23:39:00.473Z,75.30
2022-10-05T23:41:27.778Z,75.40
2022-10-05T23:43:55.448Z,75.40
2022-10-05T23:46:23.366Z,75.70
2022-10-05T23:48:50.703Z,75.30
2022-10-05T23:51:18.026Z,75.60
2022-10-05T23:53:45.567Z,75.60
2022-10-05T23:56:13.330Z,75.80
2022-10-05T23:58:41.069Z,75.50
